Time;durP1;ratioP1;P1;durP2;ratioP2;P2;SDS_P1;SDS_P2;PMS_P1;PMS_P2;Temp;Humidity;BMP_temperature;BMP_pressure;BME280_temperature;BME280_humidity;BME280_pressure;Samples;Min_cycle;Max_cycle;Signal;HPM_P1;HPM_P2
2023/08/25 00:00:19;;;;;;;16.05;2.83;;;;;;;;;;4952700;28;20114;-37
2023/08/25 00:02:46;;;;;;;14.25;2.80;;;;;;;;;;4952932;29;20031;-37
2023/08/25 00:05:13;;;;;;;14.68;3.13;;;;;;;;;;4953028;29;20034;-37
2023/08/25 00:07:40;;;;;;;20.55;2.90;;;;;;;;;;4952754;29;20082;-37
2023/08/25 00:10:07;;;;;;;20.30;3.10;;;;;;;;;;4952646;29;20031;-37
2023/08/25 00:12:34;;;;;;;15.18;2.92;;;;;;;;;;4954014;28;20035;-37
2023/08/25 00:15:01;;;;;;;24.50;4.18;;;;;;;;;;4956392;29;20062;-38
2023/08/25 00:17:28;;;;;;;18.23;4.18;;;;;;;;;;4956172;29;20090;-38
2023/08/25 00:19:55;;;;;;;24.83;4.80;;;;;;;;;;4956351;28;20128;-38
2023/08/25 00:22:22;;;;;;;27.38;6.05;;;;;;;;;;4955752;28;20035;-38
2023/08/25 00:24:50;;;;;;;27.73;6.60;;;;;;;;;;4956222;29;20026;-38
2023/08/25 00:27:17;;;;;;;24.27;6.72;;;;;;;;;;4955703;28;20039;-39
2023/08/25 00:29:44;;;;;;;23.20;6.60;;;;;;;;;;4939184;29;20037;-38
2023/08/25 00:32:11;;;;;;;24.55;6.03;;;;;;;;;;4954555;29;20027;-39
2023/08/25 00:34:38;;;;;;;26.10;7.15;;;;;;;;;;4954537;28;20075;-40
2023/08/25 00:37:05;;;;;;;24.65;7.57;;;;;;;;;;4940642;29;20031;-39
2023/08/25 00:39:32;;;;;;;41.17;10.82;;;;;;;;;;4919775;29;20032;-39
2023/08/25 00:41:59;;;;;;;46.67;13.77;;;;;;;;;;4936689;29;20099;-39
2023/08/25 00:44:26;;;;;;;70.60;19.15;;;;;;;;;;4936917;29;20382;-38
2023/08/25 00:46:53;;;;;;;74.47;18.90;;;;;;;;;;4950844;28;20031;-38
2023/08/25 00:49:21;;;;;;;61.63;18.40;;;;;;;;;;4948692;28;20035;-38
2023/08/25 00:51:48;;;;;;;80.40;19.33;;;;;;;;;;4936413;29;20023;-38
2023/08/25 00:54:15;;;;;;;71.90;17.38;;;;;;;;;;4947761;29;20059;-38
2023/08/25 00:56:43;;;;;;;77.22;19.10;;;;;;;;;;4955261;29;20101;-39
2023/08/25 00:59:10;;;;;;;63.78;17.60;;;;;;;;;;4954606;28;20071;-38
2023/08/25 01:01:37;;;;;;;80.85;19.00;;;;;;;;;;4955327;29;20031;-35
2023/08/25 01:04:04;;;;;;;72.00;17.33;;;;;;;;;;4955196;29;20114;-35
2023/08/25 01:06:31;;;;;;;65.82;17.83;;;;;;;;;;4955458;29;20027;-35
2023/08/25 01:08:59;;;;;;;68.28;16.83;;;;;;;;;;4955365;29;20118;-35
2023/08/25 01:11:26;;;;;;;70.80;18.30;;;;;;;;;;4955437;29;20113;-35
2023/08/25 01:14:11;;;;;;;71.95;18.63;;;;;;;;;;4955181;28;20035;-35
2023/08/25 01:16:48;;;;;;;61.53;16.90;;;;;;;;;;4954706;29;20174;-35
2023/08/25 01:19:31;;;;;;;56.63;17.17;;;;;;;;;;4945117;29;20498;-35
2023/08/25 01:21:59;;;;;;;62.10;18.20;;;;;;;;;;4954865;29;20170;-35
2023/08/25 01:24:29;;;;;;;66.18;17.90;;;;;;;;;;4953649;28;20548;-36
2023/08/25 01:26:56;;;;;;;62.08;15.65;;;;;;;;;;4954913;29;20036;-36
2023/08/25 01:29:23;;;;;;;62.88;16.63;;;;;;;;;;4954747;28;20104;-36
2023/08/25 01:31:50;;;;;;;66.55;17.33;;;;;;;;;;4954719;29;20027;-36
2023/08/25 01:34:18;;;;;;;63.20;17.08;;;;;;;;;;4954698;29;20104;-35
2023/08/25 01:36:53;;;;;;;68.65;17.63;;;;;;;;;;4960272;28;20019;-36
2023/08/25 01:39:22;;;;;;;69.97;16.13;;;;;;;;;;4963554;28;20023;-35
2023/08/25 01:41:53;;;;;;;52.42;15.68;;;;;;;;;;4959740;28;20050;-35
2023/08/25 01:44:21;;;;;;;69.22;16.30;;;;;;;;;;4958724;28;20030;-36
2023/08/25 01:46:51;;;;;;;57.80;15.93;;;;;;;;;;4962158;28;20023;-35
2023/08/25 01:49:21;;;;;;;56.50;15.07;;;;;;;;;;4963380;28;20043;-37
2023/08/25 01:51:48;;;;;;;61.28;15.00;;;;;;;;;;4960462;28;20378;-36
2023/08/25 01:54:15;;;;;;;47.38;14.88;;;;;;;;;;4961262;28;20466;-35
2023/08/25 01:56:42;;;;;;;54.22;14.88;;;;;;;;;;4962871;28;20106;-35
2023/08/25 01:59:09;;;;;;;53.22;14.07;;;;;;;;;;4963351;28;20035;-35
2023/08/25 02:01:36;;;;;;;52.30;14.38;;;;;;;;;;4966277;28;20493;-35
2023/08/25 02:04:03;;;;;;;42.55;13.65;;;;;;;;;;4974007;28;20019;-35
2023/08/25 02:06:30;;;;;;;46.40;14.25;;;;;;;;;;4973867;28;20035;-35
2023/08/25 02:08:57;;;;;;;43.70;13.55;;;;;;;;;;4973613;28;20520;-35
2023/08/25 02:11:24;;;;;;;38.25;12.77;;;;;;;;;;4973911;28;20090;-35
2023/08/25 02:13:51;;;;;;;34.90;11.88;;;;;;;;;;4973726;28;20023;-35
2023/08/25 02:16:18;;;;;;;38.95;12.15;;;;;;;;;;4973669;28;20034;-35
2023/08/25 02:18:45;;;;;;;34.65;11.88;;;;;;;;;;4973335;28;20062;-35
2023/08/25 02:21:12;;;;;;;38.40;11.70;;;;;;;;;;4973705;28;20030;-35
2023/08/25 02:23:40;;;;;;;37.97;11.77;;;;;;;;;;4973397;28;20145;-35
2023/08/25 02:26:07;;;;;;;32.58;10.95;;;;;;;;;;4972724;28;20492;-36
2023/08/25 02:28:34;;;;;;;31.20;11.25;;;;;;;;;;4972887;28;20077;-36
2023/08/25 02:31:02;;;;;;;33.08;10.95;;;;;;;;;;4973480;28;20030;-36
2023/08/25 02:33:29;;;;;;;26.63;10.40;;;;;;;;;;4973289;28;20549;-36
2023/08/25 02:35:56;;;;;;;32.40;10.40;;;;;;;;;;4973192;28;20031;-36
2023/08/25 02:38:23;;;;;;;29.25;9.77;;;;;;;;;;4973252;28;20084;-36
2023/08/25 02:40:50;;;;;;;34.13;10.35;;;;;;;;;;4973362;28;20037;-36
2023/08/25 02:43:18;;;;;;;26.70;9.80;;;;;;;;;;4973220;28;20422;-36
2023/08/25 02:45:45;;;;;;;29.63;10.80;;;;;;;;;;4973390;28;20509;-35
2023/08/25 02:48:12;;;;;;;27.08;9.23;;;;;;;;;;4973298;28;20030;-35
2023/08/25 02:50:39;;;;;;;26.88;9.23;;;;;;;;;;4973262;28;20425;-35
2023/08/25 02:53:06;;;;;;;22.73;9.25;;;;;;;;;;4973112;28;20027;-35
2023/08/25 02:55:32;;;;;;;21.45;8.73;;;;;;;;;;4973121;28;20058;-35
2023/08/25 02:57:59;;;;;;;23.83;8.85;;;;;;;;;;4973132;28;20031;-35
2023/08/25 03:00:26;;;;;;;23.38;9.02;;;;;;;;;;4973224;28;20130;-35
2023/08/25 03:02:54;;;;;;;29.55;9.05;;;;;;;;;;4973001;28;20102;-35
2023/08/25 03:05:24;;;;;;;21.50;8.25;;;;;;;;;;4973066;28;20496;-35
2023/08/25 03:07:54;;;;;;;23.45;8.48;;;;;;;;;;4972888;28;20037;-35
2023/08/25 03:10:21;;;;;;;23.15;9.05;;;;;;;;;;4972959;28;20081;-36
2023/08/25 03:12:48;;;;;;;19.95;8.13;;;;;;;;;;4972831;28;20049;-35
2023/08/25 03:15:15;;;;;;;23.50;8.80;;;;;;;;;;4972888;28;20089;-35
2023/08/25 03:17:42;;;;;;;23.42;8.55;;;;;;;;;;4972825;28;20505;-35
2023/08/25 03:20:09;;;;;;;20.92;7.93;;;;;;;;;;4955528;28;20031;-35
2023/08/25 03:22:37;;;;;;;19.90;8.27;;;;;;;;;;4972775;28;20543;-35
2023/08/25 03:25:04;;;;;;;19.52;8.15;;;;;;;;;;4972845;28;20422;-35
2023/08/25 03:27:34;;;;;;;18.98;7.90;;;;;;;;;;4972823;28;20023;-35
2023/08/25 03:30:01;;;;;;;17.33;7.45;;;;;;;;;;4972686;28;20472;-35
2023/08/25 03:32:28;;;;;;;17.52;7.45;;;;;;;;;;4972666;28;20023;-35
2023/08/25 03:34:55;;;;;;;19.65;8.10;;;;;;;;;;4972646;28;20039;-35
2023/08/25 03:37:22;;;;;;;18.17;7.90;;;;;;;;;;4972713;28;20026;-35
2023/08/25 03:39:52;;;;;;;18.30;6.78;;;;;;;;;;4972653;28;20098;-35
2023/08/25 03:42:19;;;;;;;22.30;7.72;;;;;;;;;;4972474;28;20034;-35
2023/08/25 03:44:47;;;;;;;16.30;6.78;;;;;;;;;;4972648;28;20027;-35
2023/08/25 03:47:14;;;;;;;16.77;6.88;;;;;;;;;;4973474;28;20038;-35
2023/08/25 03:49:41;;;;;;;14.57;6.88;;;;;;;;;;4976527;28;20543;-35
2023/08/25 03:52:08;;;;;;;16.65;7.35;;;;;;;;;;4976414;28;20077;-36
2023/08/25 03:54:35;;;;;;;17.35;7.05;;;;;;;;;;4976397;28;20038;-35
2023/08/25 03:57:06;;;;;;;16.20;7.40;;;;;;;;;;4976416;28;20034;-35
2023/08/25 03:59:33;;;;;;;13.50;5.93;;;;;;;;;;4976169;28;20035;-35
2023/08/25 04:02:01;;;;;;;18.27;6.75;;;;;;;;;;4976274;28;20027;-35
2023/08/25 04:04:28;;;;;;;14.02;6.15;;;;;;;;;;4976163;28;20035;-35
2023/08/25 04:06:55;;;;;;;17.40;6.43;;;;;;;;;;4976260;28;20030;-35
2023/08/25 04:09:22;;;;;;;18.85;6.40;;;;;;;;;;4976179;28;20051;-35
2023/08/25 04:11:49;;;;;;;16.17;6.55;;;;;;;;;;4976165;28;20042;-36
2023/08/25 04:14:16;;;;;;;15.32;6.90;;;;;;;;;;4976040;28;20023;-35
2023/08/25 04:16:43;;;;;;;13.15;6.03;;;;;;;;;;4975836;28;20033;-35
2023/08/25 04:19:10;;;;;;;12.63;5.68;;;;;;;;;;4976064;28;20054;-35
2023/08/25 04:21:37;;;;;;;15.32;6.18;;;;;;;;;;4975915;28;20028;-35
2023/08/25 04:24:04;;;;;;;12.40;5.72;;;;;;;;;;4975875;28;20104;-35
2023/08/25 04:26:31;;;;;;;13.02;5.90;;;;;;;;;;4975825;28;20033;-35
2023/08/25 04:28:58;;;;;;;13.95;6.07;;;;;;;;;;4975822;28;20031;-35
2023/08/25 04:31:25;;;;;;;14.05;6.82;;;;;;;;;;4975677;28;20023;-35
2023/08/25 04:33:52;;;;;;;11.93;5.82;;;;;;;;;;4975509;28;20109;-35
2023/08/25 04:36:19;;;;;;;11.27;5.55;;;;;;;;;;4975568;28;20110;-35
2023/08/25 04:38:46;;;;;;;11.35;5.60;;;;;;;;;;4975677;28;20050;-35
2023/08/25 04:41:13;;;;;;;12.07;5.20;;;;;;;;;;4975591;28;20038;-35
2023/08/25 04:43:40;;;;;;;10.38;5.00;;;;;;;;;;4975386;28;20081;-35
2023/08/25 04:46:07;;;;;;;13.02;5.50;;;;;;;;;;4975524;28;20027;-35
2023/08/25 04:48:34;;;;;;;11.90;5.82;;;;;;;;;;4975475;28;20038;-35
2023/08/25 04:51:01;;;;;;;11.40;5.38;;;;;;;;;;4975425;28;20026;-35
2023/08/25 04:53:28;;;;;;;10.85;5.45;;;;;;;;;;4975190;28;20065;-35
2023/08/25 04:55:55;;;;;;;10.70;5.38;;;;;;;;;;4975312;28;20035;-35
2023/08/25 04:58:22;;;;;;;11.63;4.85;;;;;;;;;;4975199;28;20378;-36
2023/08/25 05:00:52;;;;;;;11.65;5.20;;;;;;;;;;4975108;28;20412;-35
2023/08/25 05:03:19;;;;;;;11.65;5.13;;;;;;;;;;4975115;28;20031;-35
2023/08/25 05:05:47;;;;;;;13.05;5.75;;;;;;;;;;4975025;28;20113;-35
2023/08/25 05:08:14;;;;;;;9.60;4.68;;;;;;;;;;4975095;28;20374;-35
2023/08/25 05:10:41;;;;;;;8.93;4.97;;;;;;;;;;4975041;28;20027;-35
2023/08/25 05:13:08;;;;;;;9.82;5.07;;;;;;;;;;4974931;28;20026;-35
2023/08/25 05:15:35;;;;;;;10.05;4.70;;;;;;;;;;4974916;28;20035;-35
2023/08/25 05:18:02;;;;;;;8.85;4.50;;;;;;;;;;4974712;28;20070;-35
2023/08/25 05:20:29;;;;;;;10.68;5.43;;;;;;;;;;4974923;28;20165;-35
2023/08/25 05:22:56;;;;;;;10.85;4.80;;;;;;;;;;4974725;28;20027;-35
2023/08/25 05:25:23;;;;;;;11.93;4.82;;;;;;;;;;4974800;28;20106;-35
2023/08/25 05:27:50;;;;;;;8.00;4.35;;;;;;;;;;4974726;28;20049;-35
2023/08/25 05:30:17;;;;;;;10.25;4.70;;;;;;;;;;4974661;28;20030;-35
2023/08/25 05:32:44;;;;;;;9.52;4.20;;;;;;;;;;4974599;28;20393;-36
2023/08/25 05:35:11;;;;;;;10.25;4.50;;;;;;;;;;4974531;28;20042;-35
2023/08/25 05:37:39;;;;;;;7.75;3.88;;;;;;;;;;4974557;28;20031;-35
2023/08/25 05:40:07;;;;;;;8.07;4.10;;;;;;;;;;4974340;28;20509;-35
2023/08/25 05:42:37;;;;;;;9.25;4.40;;;;;;;;;;4974304;28;20478;-35
2023/08/25 05:45:04;;;;;;;9.32;4.50;;;;;;;;;;4974397;28;20505;-35
2023/08/25 05:47:31;;;;;;;9.00;4.13;;;;;;;;;;4974312;28;20050;-36
2023/08/25 05:49:58;;;;;;;9.18;4.03;;;;;;;;;;4974302;28;20452;-36
2023/08/25 05:52:25;;;;;;;7.38;3.88;;;;;;;;;;4974293;28;20089;-35
2023/08/25 05:54:52;;;;;;;7.80;4.18;;;;;;;;;;4974211;28;20090;-35
2023/08/25 05:57:19;;;;;;;9.35;4.47;;;;;;;;;;4974171;28;20033;-36
2023/08/25 05:59:46;;;;;;;11.55;5.10;;;;;;;;;;4974042;28;20045;-35
2023/08/25 06:02:14;;;;;;;7.88;3.72;;;;;;;;;;4960423;28;20067;-35
2023/08/25 06:04:41;;;;;;;8.07;3.92;;;;;;;;;;4954846;28;20086;-35
2023/08/25 06:07:08;;;;;;;10.82;4.60;;;;;;;;;;4953353;29;20066;-35
2023/08/25 06:09:35;;;;;;;4.97;3.25;;;;;;;;;;4954171;28;20056;-35
2023/08/25 06:12:02;;;;;;;7.50;4.10;;;;;;;;;;4954898;28;20102;-35
2023/08/25 06:14:30;;;;;;;8.00;3.85;;;;;;;;;;4954602;28;20035;-35
2023/08/25 06:17:01;;;;;;;9.50;3.90;;;;;;;;;;4954216;28;20082;-36
2023/08/25 06:19:28;;;;;;;6.97;4.03;;;;;;;;;;4954585;28;20062;-35
2023/08/25 06:21:55;;;;;;;7.78;3.92;;;;;;;;;;4954479;28;20027;-35
2023/08/25 06:24:22;;;;;;;8.93;3.85;;;;;;;;;;4954251;28;20066;-36
2023/08/25 06:26:48;;;;;;;8.88;3.70;;;;;;;;;;4954461;28;20175;-36
2023/08/25 06:29:15;;;;;;;7.50;3.72;;;;;;;;;;4954396;29;20126;-36
2023/08/25 06:31:42;;;;;;;7.50;3.97;;;;;;;;;;4954290;28;20099;-35
2023/08/25 06:34:10;;;;;;;7.85;3.45;;;;;;;;;;4954100;28;20110;-35
2023/08/25 06:36:37;;;;;;;8.25;3.70;;;;;;;;;;4954253;28;20086;-35
2023/08/25 06:39:04;;;;;;;8.07;4.07;;;;;;;;;;4954242;28;20027;-35
2023/08/25 06:41:31;;;;;;;6.30;3.55;;;;;;;;;;4954187;28;20027;-36
2023/08/25 06:43:59;;;;;;;7.35;3.75;;;;;;;;;;4954075;28;20042;-35
2023/08/25 06:46:26;;;;;;;5.88;3.60;;;;;;;;;;4953956;28;20047;-35
2023/08/25 06:48:53;;;;;;;9.10;3.67;;;;;;;;;;4953959;28;20609;-35
2023/08/25 06:51:20;;;;;;;6.68;3.55;;;;;;;;;;4954132;28;20035;-35
2023/08/25 06:53:47;;;;;;;5.93;3.45;;;;;;;;;;4953956;28;20031;-35
2023/08/25 06:56:13;;;;;;;5.70;3.42;;;;;;;;;;4954020;28;20036;-35
2023/08/25 06:58:41;;;;;;;7.35;3.60;;;;;;;;;;4953981;28;20035;-35
2023/08/25 07:01:08;;;;;;;7.20;3.75;;;;;;;;;;4953950;28;20039;-35
2023/08/25 07:03:34;;;;;;;7.00;3.72;;;;;;;;;;4953827;28;20027;-36
2023/08/25 07:06:01;;;;;;;6.28;3.22;;;;;;;;;;4953854;28;20406;-35
2023/08/25 07:08:28;;;;;;;6.65;3.90;;;;;;;;;;4953818;28;20027;-36
2023/08/25 07:10:55;;;;;;;5.47;3.25;;;;;;;;;;4953891;28;20110;-36
2023/08/25 07:13:22;;;;;;;5.65;2.90;;;;;;;;;;4953680;28;20027;-41
2023/08/25 07:15:50;;;;;;;6.65;3.45;;;;;;;;;;4953602;28;20122;-36
2023/08/25 07:18:17;;;;;;;4.70;2.85;;;;;;;;;;4953602;28;20059;-37
2023/08/25 07:20:44;;;;;;;7.00;3.20;;;;;;;;;;4953658;28;20122;-36
2023/08/25 07:23:11;;;;;;;6.63;3.20;;;;;;;;;;4952845;28;20102;-35
2023/08/25 07:25:43;;;;;;;6.03;3.30;;;;;;;;;;4953824;28;20390;-36
2023/08/25 07:28:10;;;;;;;6.10;3.20;;;;;;;;;;4952264;29;20027;-37
2023/08/25 07:30:38;;;;;;;5.45;3.05;;;;;;;;;;4953630;28;20374;-36
2023/08/25 07:33:09;;;;;;;6.00;3.28;;;;;;;;;;4953593;28;20050;-35
2023/08/25 07:35:36;;;;;;;5.93;2.92;;;;;;;;;;4953424;28;20043;-36
2023/08/25 07:38:04;;;;;;;5.30;3.22;;;;;;;;;;4953529;28;20038;-36
2023/08/25 07:40:34;;;;;;;4.85;2.95;;;;;;;;;;4953414;28;20066;-36
2023/08/25 07:43:02;;;;;;;6.20;3.20;;;;;;;;;;4953450;28;20054;-35
2023/08/25 07:45:30;;;;;;;4.97;2.95;;;;;;;;;;4953565;28;20488;-36
2023/08/25 07:48:01;;;;;;;4.82;2.97;;;;;;;;;;4953457;28;20280;-36
2023/08/25 07:50:32;;;;;;;6.00;3.08;;;;;;;;;;4953403;28;20031;-36
2023/08/25 07:52:59;;;;;;;4.13;2.53;;;;;;;;;;4953383;28;20133;-35
2023/08/25 07:55:26;;;;;;;4.80;3.00;;;;;;;;;;4953354;28;20043;-35
2023/08/25 07:57:53;;;;;;;5.30;2.85;;;;;;;;;;4953424;28;20102;-36
2023/08/25 08:00:20;;;;;;;4.53;2.47;;;;;;;;;;4953406;28;20035;-36
2023/08/25 08:02:48;;;;;;;5.88;2.53;;;;;;;;;;4953101;28;20117;-35
2023/08/25 08:05:17;;;;;;;6.43;2.88;;;;;;;;;;4951975;29;20379;-35
2023/08/25 08:07:44;;;;;;;4.80;2.33;;;;;;;;;;4953191;28;20062;-35
2023/08/25 08:10:12;;;;;;;4.65;2.42;;;;;;;;;;4953302;28;20035;-35
2023/08/25 08:12:41;;;;;;;4.75;2.63;;;;;;;;;;4953142;28;20023;-35
2023/08/25 08:15:09;;;;;;;5.10;2.70;;;;;;;;;;4953047;28;20047;-35
2023/08/25 08:17:36;;;;;;;4.75;2.20;;;;;;;;;;4953067;28;20588;-35
2023/08/25 08:20:05;;;;;;;4.32;2.50;;;;;;;;;;4953202;28;20035;-35
2023/08/25 08:22:32;;;;;;;4.93;2.80;;;;;;;;;;4953018;28;20039;-35
2023/08/25 08:24:59;;;;;;;5.22;2.47;;;;;;;;;;4953127;28;20031;-35
2023/08/25 08:27:26;;;;;;;4.65;2.60;;;;;;;;;;4953155;28;20390;-35
2023/08/25 08:29:53;;;;;;;3.28;2.10;;;;;;;;;;4953153;28;20027;-35
2023/08/25 08:32:21;;;;;;;5.15;2.80;;;;;;;;;;4953015;28;20034;-35
2023/08/25 08:34:49;;;;;;;3.95;2.20;;;;;;;;;;4956009;28;20031;-35
2023/08/25 08:37:16;;;;;;;5.28;2.50;;;;;;;;;;4956433;28;20043;-35
2023/08/25 08:39:44;;;;;;;4.60;2.42;;;;;;;;;;4956427;28;20039;-35
2023/08/25 08:42:14;;;;;;;4.22;2.33;;;;;;;;;;4956309;28;20062;-35
2023/08/25 08:44:46;;;;;;;4.53;2.55;;;;;;;;;;4956374;28;20030;-35
2023/08/25 08:47:14;;;;;;;4.20;2.47;;;;;;;;;;4956152;28;20039;-36
2023/08/25 08:49:42;;;;;;;3.60;2.15;;;;;;;;;;4956062;28;20371;-36
2023/08/25 08:52:09;;;;;;;3.60;2.10;;;;;;;;;;4956132;29;20035;-35
2023/08/25 08:54:36;;;;;;;4.15;2.15;;;;;;;;;;4956127;29;20158;-36
2023/08/25 08:57:04;;;;;;;3.38;2.38;;;;;;;;;;4956028;29;20034;-36
2023/08/25 08:59:31;;;;;;;4.45;2.40;;;;;;;;;;4956232;29;20039;-36
2023/08/25 09:01:59;;;;;;;3.70;2.50;;;;;;;;;;4955805;29;20593;-35
2023/08/25 09:04:26;;;;;;;3.70;2.05;;;;;;;;;;4960261;28;20039;-36
2023/08/25 09:06:56;;;;;;;3.40;2.00;;;;;;;;;;4955960;29;20043;-35
2023/08/25 09:09:23;;;;;;;3.92;2.10;;;;;;;;;;4958868;28;20043;-36
2023/08/25 09:11:51;;;;;;;3.70;2.13;;;;;;;;;;4975008;28;20572;-36
2023/08/25 09:14:25;;;;;;;4.13;2.10;;;;;;;;;;4957264;28;20122;-36
2023/08/25 09:16:56;;;;;;;3.78;2.35;;;;;;;;;;4955436;29;20035;-36
2023/08/25 09:19:24;;;;;;;5.90;2.33;;;;;;;;;;4956087;28;20035;-36
2023/08/25 09:21:51;;;;;;;4.88;2.28;;;;;;;;;;4974853;28;20474;-36
2023/08/25 09:24:24;;;;;;;4.68;2.17;;;;;;;;;;4960411;28;20058;-36
2023/08/25 09:26:51;;;;;;;3.33;2.13;;;;;;;;;;4953307;29;20031;-35
2023/08/25 09:29:18;;;;;;;4.55;2.28;;;;;;;;;;4954256;29;20094;-36
2023/08/25 09:31:46;;;;;;;5.43;2.20;;;;;;;;;;4953469;29;20035;-35
2023/08/25 09:34:14;;;;;;;4.60;2.42;;;;;;;;;;4954313;29;20035;-36
2023/08/25 09:36:51;;;;;;;4.60;2.10;;;;;;;;;;4954036;29;20094;-36
2023/08/25 09:39:19;;;;;;;4.35;2.03;;;;;;;;;;4953467;29;20171;-36
2023/08/25 09:41:46;;;;;;;3.75;2.22;;;;;;;;;;4953955;29;20134;-36
2023/08/25 09:44:13;;;;;;;3.88;2.10;;;;;;;;;;4954164;28;20071;-36
2023/08/25 09:46:40;;;;;;;3.30;2.15;;;;;;;;;;4954614;29;20028;-35
2023/08/25 09:49:08;;;;;;;4.03;2.13;;;;;;;;;;4955259;29;20548;-35
2023/08/25 09:51:39;;;;;;;3.78;1.98;;;;;;;;;;4954935;29;20023;-35
2023/08/25 09:54:24;;;;;;;7.75;2.45;;;;;;;;;;4955045;29;20394;-35
2023/08/25 09:56:51;;;;;;;4.15;2.25;;;;;;;;;;4954912;29;20041;-35
2023/08/25 09:59:18;;;;;;;3.67;2.10;;;;;;;;;;4954995;29;20478;-35
2023/08/25 10:01:46;;;;;;;3.83;1.77;;;;;;;;;;4954873;29;20122;-35
2023/08/25 10:04:13;;;;;;;7.32;2.15;;;;;;;;;;4954838;29;20030;-35
2023/08/25 10:06:41;;;;;;;4.68;2.13;;;;;;;;;;4954404;29;20039;-36
2023/08/25 10:09:08;;;;;;;7.97;1.95;;;;;;;;;;4944520;29;20042;-43
2023/08/25 10:11:36;;;;;;;9.65;2.25;;;;;;;;;;4946045;29;20034;-41
2023/08/25 10:14:06;;;;;;;13.65;2.45;;;;;;;;;;4954350;29;20027;-41
2023/08/25 10:16:36;;;;;;;7.72;2.33;;;;;;;;;;4951705;29;20043;-40
2023/08/25 10:19:05;;;;;;;15.63;2.50;;;;;;;;;;4951717;29;20098;-38
2023/08/25 10:21:32;;;;;;;9.25;2.53;;;;;;;;;;4952599;29;20098;-38
2023/08/25 10:24:02;;;;;;;12.73;2.38;;;;;;;;;;4947208;29;20126;-38
2023/08/25 10:26:31;;;;;;;7.63;1.90;;;;;;;;;;4951668;29;20387;-38
2023/08/25 10:28:58;;;;;;;7.85;2.50;;;;;;;;;;4953728;29;20063;-46
2023/08/25 10:31:25;;;;;;;9.40;1.83;;;;;;;;;;4935426;29;20449;-47
2023/08/25 10:33:53;;;;;;;10.77;2.25;;;;;;;;;;4931991;29;20142;-47
2023/08/25 10:36:21;;;;;;;6.40;1.92;;;;;;;;;;4951707;29;20117;-47
2023/08/25 10:38:51;;;;;;;9.15;2.20;;;;;;;;;;4952467;29;20031;-38
2023/08/25 10:41:20;;;;;;;14.68;2.47;;;;;;;;;;4952441;29;20043;-38
2023/08/25 10:43:54;;;;;;;11.43;1.95;;;;;;;;;;4952980;29;20118;-38
2023/08/25 10:46:21;;;;;;;7.57;2.15;;;;;;;;;;4948980;29;20035;-39
2023/08/25 10:48:49;;;;;;;12.30;2.08;;;;;;;;;;4951465;29;20389;-40
2023/08/25 10:51:20;;;;;;;9.23;1.95;;;;;;;;;;4952485;29;20059;-39
2023/08/25 10:53:50;;;;;;;11.30;2.30;;;;;;;;;;4953158;29;20393;-40
2023/08/25 10:56:23;;;;;;;15.70;2.13;;;;;;;;;;4952794;28;20035;-38
2023/08/25 10:59:04;;;;;;;19.45;3.13;;;;;;;;;;4948555;29;20068;-38
2023/08/25 11:01:42;;;;;;;10.82;2.10;;;;;;;;;;4952789;29;20114;-38
2023/08/25 11:04:12;;;;;;;12.35;2.30;;;;;;;;;;4949995;29;20505;-36
2023/08/25 11:06:48;;;;;;;65.85;4.20;;;;;;;;;;4952690;29;20031;-37
2023/08/25 11:09:21;;;;;;;67.80;5.03;;;;;;;;;;4952893;29;20609;-37
2023/08/25 11:11:56;;;;;;;59.42;4.80;;;;;;;;;;4951157;29;20093;-35
2023/08/25 11:14:28;;;;;;;57.75;4.13;;;;;;;;;;4950754;29;20031;-35
2023/08/25 11:16:56;;;;;;;73.25;5.03;;;;;;;;;;4952455;29;20090;-43
2023/08/25 11:19:27;;;;;;;62.25;4.72;;;;;;;;;;4950514;29;20023;-42
2023/08/25 11:22:00;;;;;;;163.70;12.52;;;;;;;;;;4953170;29;20102;-45
2023/08/25 11:24:29;;;;;;;108.38;8.02;;;;;;;;;;4953375;29;20038;-45
2023/08/25 11:27:10;;;;;;;95.20;6.97;;;;;;;;;;4953324;29;20046;-45
2023/08/25 11:29:39;;;;;;;119.63;10.80;;;;;;;;;;4953274;29;20046;-45
2023/08/25 11:32:06;;;;;;;108.40;9.68;;;;;;;;;;4945832;29;20039;-46
2023/08/25 11:34:34;;;;;;;93.90;9.25;;;;;;;;;;4953261;29;20038;-44
2023/08/25 11:37:01;;;;;;;96.15;8.77;;;;;;;;;;4953203;29;20039;-44
2023/08/25 11:39:28;;;;;;;76.43;8.80;;;;;;;;;;4952833;29;20031;-44
2023/08/25 11:41:55;;;;;;;72.25;8.65;;;;;;;;;;4949599;29;20818;-41
2023/08/25 11:44:26;;;;;;;93.07;10.20;;;;;;;;;;4953233;29;20509;-43
2023/08/25 11:46:53;;;;;;;101.07;9.45;;;;;;;;;;4952947;29;20031;-42
2023/08/25 11:49:21;;;;;;;72.13;8.82;;;;;;;;;;4953104;29;20035;-42
2023/08/25 11:51:53;;;;;;;78.35;8.25;;;;;;;;;;4953089;29;20032;-42
2023/08/25 11:54:19;;;;;;;;;;;;;;;;;;4953349;29;20393;-42
2023/08/25 11:56:53;;;;;;;125.40;11.07;;;;;;;;;;4952562;29;20049;-43
2023/08/25 11:59:20;;;;;;;102.65;10.43;;;;;;;;;;4952779;29;20042;-43
2023/08/25 12:01:49;;;;;;;88.22;8.65;;;;;;;;;;4952465;29;20049;-44
2023/08/25 12:04:23;;;;;;;83.07;9.00;;;;;;;;;;4952758;29;20118;-44
2023/08/25 12:06:55;;;;;;;76.78;9.48;;;;;;;;;;4952563;29;20422;-44
2023/08/25 12:09:23;;;;;;;66.30;9.03;;;;;;;;;;4955343;28;20402;-44
2023/08/25 12:11:59;;;;;;;80.18;10.02;;;;;;;;;;4956011;29;20035;-44
2023/08/25 12:14:27;;;;;;;74.95;9.52;;;;;;;;;;4956350;29;20626;-44
2023/08/25 12:16:54;;;;;;;62.45;8.63;;;;;;;;;;4952679;29;20401;-44
2023/08/25 12:19:26;;;;;;;57.70;8.55;;;;;;;;;;4956255;29;20058;-44
2023/08/25 12:21:56;;;;;;;71.95;8.60;;;;;;;;;;4956205;29;20138;-43
2023/08/25 12:24:24;;;;;;;61.35;9.30;;;;;;;;;;4956062;29;20035;-44
2023/08/25 12:26:51;;;;;;;63.15;9.18;;;;;;;;;;4956153;29;20034;-43
2023/08/25 12:29:21;;;;;;;61.05;8.15;;;;;;;;;;4956166;29;20039;-45
2023/08/25 12:31:48;;;;;;;62.40;8.90;;;;;;;;;;4955804;29;20051;-44
2023/08/25 12:34:15;;;;;;;62.40;8.52;;;;;;;;;;4955881;29;20042;-43
2023/08/25 12:36:43;;;;;;;64.20;9.95;;;;;;;;;;4956082;29;20553;-44
2023/08/25 12:39:10;;;;;;;61.60;8.98;;;;;;;;;;4956023;29;20042;-44
2023/08/25 12:41:37;;;;;;;55.92;8.15;;;;;;;;;;4955986;29;20389;-44
2023/08/25 12:44:04;;;;;;;55.45;7.93;;;;;;;;;;4955813;29;20110;-44
2023/08/25 12:46:31;;;;;;;57.97;8.80;;;;;;;;;;4955839;29;20043;-44
2023/08/25 12:48:58;;;;;;;51.05;8.30;;;;;;;;;;4955541;29;20382;-44
2023/08/25 12:51:25;;;;;;;47.42;6.97;;;;;;;;;;4955763;29;20042;-44
2023/08/25 12:53:52;;;;;;;57.53;7.80;;;;;;;;;;4938241;29;20123;-43
2023/08/25 12:56:19;;;;;;;46.05;7.70;;;;;;;;;;4955757;29;20114;-44
2023/08/25 12:58:46;;;;;;;49.22;7.45;;;;;;;;;;4955338;29;20027;-44
2023/08/25 13:01:13;;;;;;;42.83;7.25;;;;;;;;;;4955142;29;20482;-43
2023/08/25 13:03:40;;;;;;;34.83;7.35;;;;;;;;;;4938544;29;20470;-44
2023/08/25 13:06:07;;;;;;;44.25;7.07;;;;;;;;;;4955464;29;20038;-43
2023/08/25 13:08:34;;;;;;;43.20;7.32;;;;;;;;;;4955517;29;20031;-44
2023/08/25 13:11:01;;;;;;;46.17;7.28;;;;;;;;;;4955308;29;20073;-44
2023/08/25 13:13:29;;;;;;;37.05;6.82;;;;;;;;;;4955298;29;20085;-44
2023/08/25 13:15:59;;;;;;;41.85;6.45;;;;;;;;;;4955327;29;20088;-44
2023/08/25 13:18:26;;;;;;;40.10;7.07;;;;;;;;;;4955190;29;20043;-44
2023/08/25 13:20:53;;;;;;;46.03;7.13;;;;;;;;;;4954941;28;20023;-44
2023/08/25 13:23:20;;;;;;;36.53;6.93;;;;;;;;;;4955180;29;20035;-44
2023/08/25 13:25:47;;;;;;;38.13;6.53;;;;;;;;;;4955148;29;20039;-44
2023/08/25 13:28:14;;;;;;;39.72;6.47;;;;;;;;;;4954691;29;20509;-42
2023/08/25 13:30:42;;;;;;;38.10;5.97;;;;;;;;;;4955133;29;20031;-43
2023/08/25 13:33:09;;;;;;;29.08;5.35;;;;;;;;;;4937437;29;20047;-44
2023/08/25 13:35:36;;;;;;;30.23;5.20;;;;;;;;;;4955149;29;20059;-43
2023/08/25 13:38:04;;;;;;;29.77;5.25;;;;;;;;;;4953159;29;20031;-45
2023/08/25 13:40:31;;;;;;;21.17;4.55;;;;;;;;;;4942405;29;20039;-43
2023/08/25 13:42:58;;;;;;;25.30;4.80;;;;;;;;;;4935197;29;20039;-43
2023/08/25 13:45:25;;;;;;;19.80;3.80;;;;;;;;;;4935504;29;20032;-45
2023/08/25 13:47:52;;;;;;;19.05;3.50;;;;;;;;;;4935400;29;20035;-44
2023/08/25 13:50:19;;;;;;;25.98;3.80;;;;;;;;;;4935628;29;20027;-43
2023/08/25 13:52:46;;;;;;;19.63;2.83;;;;;;;;;;4934959;29;20592;-44
2023/08/25 13:55:13;;;;;;;16.75;3.17;;;;;;;;;;4935412;29;20121;-44
2023/08/25 13:57:40;;;;;;;19.40;3.30;;;;;;;;;;4935518;29;20059;-42
2023/08/25 14:00:07;;;;;;;14.75;2.90;;;;;;;;;;4935290;29;20576;-44
2023/08/25 14:02:34;;;;;;;21.30;2.58;;;;;;;;;;4935269;29;20055;-44
2023/08/25 14:05:01;;;;;;;16.38;2.47;;;;;;;;;;4935142;29;20490;-43
2023/08/25 14:07:28;;;;;;;12.05;2.67;;;;;;;;;;4935244;29;20490;-43
2023/08/25 14:09:55;;;;;;;9.35;2.25;;;;;;;;;;4935141;29;20055;-44
2023/08/25 14:12:22;;;;;;;8.88;2.05;;;;;;;;;;4934994;29;20482;-43
2023/08/25 14:14:49;;;;;;;10.98;2.40;;;;;;;;;;4935122;29;20059;-42
2023/08/25 14:17:16;;;;;;;9.38;1.90;;;;;;;;;;4934588;29;20047;-43
2023/08/25 14:19:43;;;;;;;8.68;1.80;;;;;;;;;;4934288;29;20538;-43
2023/08/25 14:22:10;;;;;;;13.63;2.10;;;;;;;;;;4933964;29;20031;-44
2023/08/25 14:24:37;;;;;;;9.45;1.88;;;;;;;;;;4934281;29;20062;-44
2023/08/25 14:27:04;;;;;;;13.75;2.90;;;;;;;;;;4926067;29;20043;-43
2023/08/25 14:29:31;;;;;;;22.92;3.38;;;;;;;;;;4940331;29;20433;-42
2023/08/25 14:31:58;;;;;;;18.00;3.63;;;;;;;;;;4933557;29;20090;-43
2023/08/25 14:34:25;;;;;;;19.38;3.85;;;;;;;;;;4916898;29;20070;-43
2023/08/25 14:36:52;;;;;;;19.20;4.38;;;;;;;;;;4933829;29;20645;-42